The Lakes, Nevada
Current Conditions -  °F | °C
As of 9:53 AM on Monday 26 Jan 2015 (Local Time) from KVGT Reporting Station
Clear Clear  
Wind Chill: 60°   Ceiling: Unl
Heat Index: 60°   Visibility: 10mi
Dew Point: 30°   Wind: 6mph
Humidity: 32%   Direction: 200°SSW
Pressure: 30.19"   Gusts: NA
Location:  36.14°N, 115.29°W
Report Text: KVGT 261753Z 20005KT 10SM CLR 16/M01 A3019 RMK AO2 SLP235 T01561011 10156 20078 53005
Loading
Personal Weather Stations






























Interactive Weather Map New forecast layout! Learn more

10-Day Weather Forecast

Advertisements
Track Severe Weather on mobile